sensor_id;sensor_type;location;lat;lon;timestamp;P1;durP1;ratioP1;P2;durP2;ratioP2
80707;SDS011;70222;49.204;-122.940;2023-09-18T00:01:14;3.75;;;1.65;;
80707;SDS011;70222;49.204;-122.940;2023-09-18T00:03:40;2.92;;;2.13;;
80707;SDS011;70222;49.204;-122.940;2023-09-18T00:06:06;3.90;;;1.63;;
80707;SDS011;70222;49.204;-122.940;2023-09-18T00:08:34;3.78;;;1.58;;
80707;SDS011;70222;49.204;-122.940;2023-09-18T00:11:00;3.95;;;1.73;;
80707;SDS011;70222;49.204;-122.940;2023-09-18T00:13:26;1.95;;;1.50;;
80707;SDS011;70222;49.204;-122.940;2023-09-18T00:15:54;3.03;;;1.92;;
80707;SDS011;70222;49.204;-122.940;2023-09-18T00:18:21;4.20;;;1.83;;
80707;SDS011;70222;49.204;-122.940;2023-09-18T00:20:47;3.40;;;1.73;;
80707;SDS011;70222;49.204;-122.940;2023-09-18T00:23:13;1.90;;;1.35;;
80707;SDS011;70222;49.204;-122.940;2023-09-18T00:25:41;2.28;;;1.83;;
80707;SDS011;70222;49.204;-122.940;2023-09-18T00:28:07;3.78;;;1.70;;
80707;SDS011;70222;49.204;-122.940;2023-09-18T00:30:34;2.42;;;1.67;;
80707;SDS011;70222;49.204;-122.940;2023-09-18T00:33:00;3.38;;;1.75;;
80707;SDS011;70222;49.204;-122.940;2023-09-18T00:35:26;4.47;;;1.85;;
80707;SDS011;70222;49.204;-122.940;2023-09-18T00:37:52;2.28;;;1.50;;
80707;SDS011;70222;49.204;-122.940;2023-09-18T00:40:18;3.58;;;1.77;;
80707;SDS011;70222;49.204;-122.940;2023-09-18T00:42:44;3.05;;;2.22;;
80707;SDS011;70222;49.204;-122.940;2023-09-18T00:45:11;4.82;;;1.90;;
80707;SDS011;70222;49.204;-122.940;2023-09-18T00:47:37;2.33;;;1.60;;
80707;SDS011;70222;49.204;-122.940;2023-09-18T00:53:25;2.60;;;1.48;;
80707;SDS011;70222;49.204;-122.940;2023-09-18T00:55:53;2.15;;;1.52;;
80707;SDS011;70222;49.204;-122.940;2023-09-18T00:58:20;3.30;;;1.60;;
80707;SDS011;70222;49.204;-122.940;2023-09-18T01:00:46;2.53;;;1.65;;
80707;SDS011;70222;49.204;-122.940;2023-09-18T01:03:16;3.60;;;1.60;;
80707;SDS011;70222;49.204;-122.940;2023-09-18T01:05:44;2.50;;;1.50;;
80707;SDS011;70222;49.204;-122.940;2023-09-18T01:08:10;3.60;;;1.73;;
80707;SDS011;70222;49.204;-122.940;2023-09-18T01:10:39;2.28;;;1.70;;
80707;SDS011;70222;49.204;-122.940;2023-09-18T01:13:35;2.63;;;1.67;;
80707;SDS011;70222;49.204;-122.940;2023-09-18T01:16:08;5.65;;;2.10;;
80707;SDS011;70222;49.204;-122.940;2023-09-18T01:18:41;2.78;;;1.73;;
80707;SDS011;70222;49.204;-122.940;2023-09-18T01:21:14;3.70;;;1.85;;
80707;SDS011;70222;49.204;-122.940;2023-09-18T01:23:40;2.40;;;1.85;;
80707;SDS011;70222;49.204;-122.940;2023-09-18T01:26:06;4.82;;;1.70;;
80707;SDS011;70222;49.204;-122.940;2023-09-18T01:28:33;3.10;;;1.90;;
80707;SDS011;70222;49.204;-122.940;2023-09-18T01:30:59;3.08;;;1.77;;
80707;SDS011;70222;49.204;-122.940;2023-09-18T01:33:25;2.63;;;1.70;;
80707;SDS011;70222;49.204;-122.940;2023-09-18T01:35:52;5.65;;;2.03;;
80707;SDS011;70222;49.204;-122.940;2023-09-18T01:38:21;3.33;;;1.80;;
80707;SDS011;70222;49.204;-122.940;2023-09-18T01:40:48;2.67;;;1.75;;
80707;SDS011;70222;49.204;-122.940;2023-09-18T01:43:15;2.05;;;1.60;;
80707;SDS011;70222;49.204;-122.940;2023-09-18T01:45:41;2.92;;;1.73;;
80707;SDS011;70222;49.204;-122.940;2023-09-18T01:50:34;3.10;;;1.75;;
80707;SDS011;70222;49.204;-122.940;2023-09-18T01:53:02;2.45;;;1.48;;
80707;SDS011;70222;49.204;-122.940;2023-09-18T01:55:28;3.83;;;2.15;;
80707;SDS011;70222;49.204;-122.940;2023-09-18T01:57:55;2.60;;;1.80;;
80707;SDS011;70222;49.204;-122.940;2023-09-18T02:00:21;3.05;;;2.10;;
80707;SDS011;70222;49.204;-122.940;2023-09-18T02:02:47;3.50;;;1.77;;
80707;SDS011;70222;49.204;-122.940;2023-09-18T02:05:13;5.45;;;2.10;;
80707;SDS011;70222;49.204;-122.940;2023-09-18T02:07:39;3.47;;;2.30;;
80707;SDS011;70222;49.204;-122.940;2023-09-18T02:10:06;4.63;;;2.33;;
80707;SDS011;70222;49.204;-122.940;2023-09-18T02:12:32;2.40;;;1.80;;
80707;SDS011;70222;49.204;-122.940;2023-09-18T02:14:58;3.70;;;1.80;;
80707;SDS011;70222;49.204;-122.940;2023-09-18T02:17:29;5.30;;;1.80;;
80707;SDS011;70222;49.204;-122.940;2023-09-18T02:19:56;3.80;;;1.70;;
80707;SDS011;70222;49.204;-122.940;2023-09-18T02:22:22;4.57;;;1.70;;
80707;SDS011;70222;49.204;-122.940;2023-09-18T02:24:48;2.40;;;1.75;;
80707;SDS011;70222;49.204;-122.940;2023-09-18T02:27:14;2.20;;;1.60;;
80707;SDS011;70222;49.204;-122.940;2023-09-18T02:29:40;3.75;;;1.95;;
80707;SDS011;70222;49.204;-122.940;2023-09-18T02:32:06;2.25;;;1.75;;
80707;SDS011;70222;49.204;-122.940;2023-09-18T02:34:32;3.92;;;2.67;;
80707;SDS011;70222;49.204;-122.940;2023-09-18T02:36:58;4.50;;;2.10;;
80707;SDS011;70222;49.204;-122.940;2023-09-18T02:39:24;3.17;;;2.17;;
80707;SDS011;70222;49.204;-122.940;2023-09-18T02:41:50;4.00;;;2.25;;
80707;SDS011;70222;49.204;-122.940;2023-09-18T02:44:17;4.60;;;2.40;;
80707;SDS011;70222;49.204;-122.940;2023-09-18T02:46:43;4.38;;;2.33;;
80707;SDS011;70222;49.204;-122.940;2023-09-18T02:49:09;3.13;;;1.88;;
80707;SDS011;70222;49.204;-122.940;2023-09-18T02:51:35;3.53;;;1.90;;
80707;SDS011;70222;49.204;-122.940;2023-09-18T02:54:02;4.80;;;2.00;;
80707;SDS011;70222;49.204;-122.940;2023-09-18T02:56:28;4.20;;;3.03;;
80707;SDS011;70222;49.204;-122.940;2023-09-18T02:58:54;3.45;;;2.35;;
80707;SDS011;70222;49.204;-122.940;2023-09-18T03:01:20;3.90;;;1.90;;
80707;SDS011;70222;49.204;-122.940;2023-09-18T03:03:46;3.42;;;2.67;;
80707;SDS011;70222;49.204;-122.940;2023-09-18T03:06:12;3.53;;;2.35;;
80707;SDS011;70222;49.204;-122.940;2023-09-18T03:08:38;4.63;;;1.90;;
80707;SDS011;70222;49.204;-122.940;2023-09-18T03:11:10;3.88;;;2.10;;
80707;SDS011;70222;49.204;-122.940;2023-09-18T03:13:42;3.15;;;2.20;;
80707;SDS011;70222;49.204;-122.940;2023-09-18T03:16:11;3.03;;;1.70;;
80707;SDS011;70222;49.204;-122.940;2023-09-18T03:18:38;3.70;;;2.00;;
80707;SDS011;70222;49.204;-122.940;2023-09-18T03:21:04;3.83;;;2.20;;
80707;SDS011;70222;49.204;-122.940;2023-09-18T03:23:30;3.60;;;2.17;;
80707;SDS011;70222;49.204;-122.940;2023-09-18T03:25:57;2.75;;;1.70;;
80707;SDS011;70222;49.204;-122.940;2023-09-18T03:28:25;3.00;;;1.92;;
80707;SDS011;70222;49.204;-122.940;2023-09-18T03:30:51;3.65;;;1.83;;
80707;SDS011;70222;49.204;-122.940;2023-09-18T03:33:17;4.82;;;2.28;;
80707;SDS011;70222;49.204;-122.940;2023-09-18T03:35:49;2.42;;;1.75;;
80707;SDS011;70222;49.204;-122.940;2023-09-18T03:38:17;2.65;;;1.92;;
80707;SDS011;70222;49.204;-122.940;2023-09-18T03:40:43;4.70;;;3.60;;
80707;SDS011;70222;49.204;-122.940;2023-09-18T03:43:10;3.78;;;1.80;;
80707;SDS011;70222;49.204;-122.940;2023-09-18T03:45:37;2.25;;;1.80;;
80707;SDS011;70222;49.204;-122.940;2023-09-18T03:48:06;2.72;;;1.83;;
80707;SDS011;70222;49.204;-122.940;2023-09-18T03:50:32;4.93;;;1.80;;
80707;SDS011;70222;49.204;-122.940;2023-09-18T03:52:58;4.28;;;1.70;;
80707;SDS011;70222;49.204;-122.940;2023-09-18T03:55:24;2.65;;;1.70;;
80707;SDS011;70222;49.204;-122.940;2023-09-18T03:57:52;2.67;;;1.75;;
80707;SDS011;70222;49.204;-122.940;2023-09-18T04:00:18;2.03;;;1.55;;
80707;SDS011;70222;49.204;-122.940;2023-09-18T04:02:44;3.55;;;1.92;;
80707;SDS011;70222;49.204;-122.940;2023-09-18T04:05:10;2.25;;;1.80;;
80707;SDS011;70222;49.204;-122.940;2023-09-18T04:07:36;4.03;;;2.05;;
80707;SDS011;70222;49.204;-122.940;2023-09-18T04:10:02;2.90;;;1.85;;
80707;SDS011;70222;49.204;-122.940;2023-09-18T04:12:30;5.10;;;1.75;;
80707;SDS011;70222;49.204;-122.940;2023-09-18T04:14:56;4.75;;;2.15;;
80707;SDS011;70222;49.204;-122.940;2023-09-18T04:17:22;3.33;;;2.00;;
80707;SDS011;70222;49.204;-122.940;2023-09-18T04:19:48;3.65;;;2.03;;
80707;SDS011;70222;49.204;-122.940;2023-09-18T04:22:15;3.78;;;1.85;;
80707;SDS011;70222;49.204;-122.940;2023-09-18T04:24:41;2.80;;;1.80;;
80707;SDS011;70222;49.204;-122.940;2023-09-18T04:27:07;2.78;;;1.80;;
80707;SDS011;70222;49.204;-122.940;2023-09-18T04:29:33;3.63;;;2.20;;
80707;SDS011;70222;49.204;-122.940;2023-09-18T04:31:59;2.47;;;1.70;;
80707;SDS011;70222;49.204;-122.940;2023-09-18T04:34:25;4.22;;;2.25;;
80707;SDS011;70222;49.204;-122.940;2023-09-18T04:36:51;3.28;;;1.88;;
80707;SDS011;70222;49.204;-122.940;2023-09-18T04:39:17;5.53;;;2.08;;
80707;SDS011;70222;49.204;-122.940;2023-09-18T04:45:05;3.83;;;2.28;;
80707;SDS011;70222;49.204;-122.940;2023-09-18T04:47:32;2.95;;;1.90;;
80707;SDS011;70222;49.204;-122.940;2023-09-18T04:49:58;2.60;;;1.95;;
80707;SDS011;70222;49.204;-122.940;2023-09-18T04:52:24;4.78;;;2.00;;
80707;SDS011;70222;49.204;-122.940;2023-09-18T04:54:50;4.38;;;1.83;;
80707;SDS011;70222;49.204;-122.940;2023-09-18T04:57:16;4.03;;;1.90;;
80707;SDS011;70222;49.204;-122.940;2023-09-18T04:59:42;3.13;;;2.25;;
80707;SDS011;70222;49.204;-122.940;2023-09-18T05:02:08;2.38;;;1.90;;
80707;SDS011;70222;49.204;-122.940;2023-09-18T05:04:35;3.22;;;2.15;;
80707;SDS011;70222;49.204;-122.940;2023-09-18T05:07:01;3.95;;;2.45;;
80707;SDS011;70222;49.204;-122.940;2023-09-18T05:09:27;4.82;;;1.70;;
80707;SDS011;70222;49.204;-122.940;2023-09-18T05:11:53;3.92;;;1.90;;
80707;SDS011;70222;49.204;-122.940;2023-09-18T05:14:19;3.42;;;1.98;;
80707;SDS011;70222;49.204;-122.940;2023-09-18T05:16:46;4.50;;;2.13;;
80707;SDS011;70222;49.204;-122.940;2023-09-18T05:19:12;2.58;;;1.50;;
80707;SDS011;70222;49.204;-122.940;2023-09-18T05:21:38;5.90;;;3.10;;
80707;SDS011;70222;49.204;-122.940;2023-09-18T05:24:04;6.28;;;2.25;;
80707;SDS011;70222;49.204;-122.940;2023-09-18T05:26:30;3.72;;;2.08;;
80707;SDS011;70222;49.204;-122.940;2023-09-18T05:28:57;5.20;;;2.03;;
80707;SDS011;70222;49.204;-122.940;2023-09-18T05:31:23;3.22;;;1.73;;
80707;SDS011;70222;49.204;-122.940;2023-09-18T05:33:49;3.03;;;2.10;;
80707;SDS011;70222;49.204;-122.940;2023-09-18T05:36:16;4.03;;;1.90;;
80707;SDS011;70222;49.204;-122.940;2023-09-18T05:38:42;4.35;;;1.83;;
80707;SDS011;70222;49.204;-122.940;2023-09-18T05:41:11;2.65;;;1.83;;
80707;SDS011;70222;49.204;-122.940;2023-09-18T05:43:37;4.20;;;2.42;;
80707;SDS011;70222;49.204;-122.940;2023-09-18T05:46:03;6.00;;;2.22;;
80707;SDS011;70222;49.204;-122.940;2023-09-18T05:48:29;3.42;;;2.03;;
80707;SDS011;70222;49.204;-122.940;2023-09-18T05:50:56;3.95;;;2.30;;
80707;SDS011;70222;49.204;-122.940;2023-09-18T05:53:22;4.35;;;2.00;;
80707;SDS011;70222;49.204;-122.940;2023-09-18T05:55:48;4.72;;;2.13;;
80707;SDS011;70222;49.204;-122.940;2023-09-18T05:58:14;3.17;;;1.77;;
80707;SDS011;70222;49.204;-122.940;2023-09-18T06:00:42;4.13;;;2.05;;
80707;SDS011;70222;49.204;-122.940;2023-09-18T06:03:08;2.88;;;2.10;;
80707;SDS011;70222;49.204;-122.940;2023-09-18T06:05:37;5.45;;;2.30;;
80707;SDS011;70222;49.204;-122.940;2023-09-18T06:08:03;2.80;;;2.05;;
80707;SDS011;70222;49.204;-122.940;2023-09-18T06:10:31;4.35;;;2.80;;
80707;SDS011;70222;49.204;-122.940;2023-09-18T06:12:57;4.28;;;2.47;;
80707;SDS011;70222;49.204;-122.940;2023-09-18T06:15:23;3.70;;;2.03;;
80707;SDS011;70222;49.204;-122.940;2023-09-18T06:17:49;7.30;;;4.07;;
80707;SDS011;70222;49.204;-122.940;2023-09-18T06:20:15;4.82;;;2.60;;
80707;SDS011;70222;49.204;-122.940;2023-09-18T06:22:42;3.42;;;2.30;;
80707;SDS011;70222;49.204;-122.940;2023-09-18T06:25:08;4.70;;;2.13;;
80707;SDS011;70222;49.204;-122.940;2023-09-18T06:27:38;4.38;;;2.53;;
80707;SDS011;70222;49.204;-122.940;2023-09-18T06:30:05;5.40;;;2.33;;
80707;SDS011;70222;49.204;-122.940;2023-09-18T06:34:57;3.40;;;2.28;;
80707;SDS011;70222;49.204;-122.940;2023-09-18T06:37:24;4.25;;;2.10;;
80707;SDS011;70222;49.204;-122.940;2023-09-18T06:39:50;3.95;;;2.10;;
80707;SDS011;70222;49.204;-122.940;2023-09-18T06:42:17;5.90;;;2.40;;
80707;SDS011;70222;49.204;-122.940;2023-09-18T06:44:43;2.58;;;1.95;;
80707;SDS011;70222;49.204;-122.940;2023-09-18T06:47:09;4.88;;;2.55;;
80707;SDS011;70222;49.204;-122.940;2023-09-18T06:49:35;3.72;;;2.05;;
80707;SDS011;70222;49.204;-122.940;2023-09-18T06:52:02;3.63;;;2.00;;
80707;SDS011;70222;49.204;-122.940;2023-09-18T06:54:28;6.07;;;2.30;;
80707;SDS011;70222;49.204;-122.940;2023-09-18T06:56:54;3.25;;;2.05;;
80707;SDS011;70222;49.204;-122.940;2023-09-18T06:59:20;4.15;;;1.83;;
80707;SDS011;70222;49.204;-122.940;2023-09-18T07:01:46;4.25;;;2.15;;
80707;SDS011;70222;49.204;-122.940;2023-09-18T07:04:12;3.20;;;2.05;;
80707;SDS011;70222;49.204;-122.940;2023-09-18T07:06:39;3.95;;;1.92;;
80707;SDS011;70222;49.204;-122.940;2023-09-18T07:09:05;3.97;;;2.33;;
80707;SDS011;70222;49.204;-122.940;2023-09-18T07:11:32;3.53;;;2.08;;
80707;SDS011;70222;49.204;-122.940;2023-09-18T07:13:59;4.32;;;2.45;;
80707;SDS011;70222;49.204;-122.940;2023-09-18T07:18:52;2.75;;;1.90;;
80707;SDS011;70222;49.204;-122.940;2023-09-18T07:21:18;4.35;;;2.25;;
80707;SDS011;70222;49.204;-122.940;2023-09-18T07:23:45;3.65;;;2.22;;
80707;SDS011;70222;49.204;-122.940;2023-09-18T07:26:12;4.43;;;2.15;;
80707;SDS011;70222;49.204;-122.940;2023-09-18T07:28:39;3.95;;;2.20;;
80707;SDS011;70222;49.204;-122.940;2023-09-18T07:31:07;5.93;;;2.58;;
80707;SDS011;70222;49.204;-122.940;2023-09-18T07:33:34;4.13;;;2.20;;
80707;SDS011;70222;49.204;-122.940;2023-09-18T07:36:00;4.45;;;2.63;;
80707;SDS011;70222;49.204;-122.940;2023-09-18T07:38:26;3.85;;;2.40;;
80707;SDS011;70222;49.204;-122.940;2023-09-18T07:40:52;4.72;;;2.20;;
80707;SDS011;70222;49.204;-122.940;2023-09-18T07:43:18;3.55;;;2.50;;
80707;SDS011;70222;49.204;-122.940;2023-09-18T07:45:45;3.38;;;2.08;;
80707;SDS011;70222;49.204;-122.940;2023-09-18T07:48:11;3.05;;;2.50;;
80707;SDS011;70222;49.204;-122.940;2023-09-18T07:50:37;4.80;;;2.70;;
80707;SDS011;70222;49.204;-122.940;2023-09-18T07:53:03;3.90;;;2.40;;
80707;SDS011;70222;49.204;-122.940;2023-09-18T07:55:29;5.47;;;2.60;;
80707;SDS011;70222;49.204;-122.940;2023-09-18T07:57:56;3.65;;;2.28;;
80707;SDS011;70222;49.204;-122.940;2023-09-18T08:00:24;6.05;;;2.00;;
80707;SDS011;70222;49.204;-122.940;2023-09-18T08:02:50;3.47;;;2.15;;
80707;SDS011;70222;49.204;-122.940;2023-09-18T08:05:19;4.20;;;3.15;;
80707;SDS011;70222;49.204;-122.940;2023-09-18T08:07:45;5.80;;;2.45;;
80707;SDS011;70222;49.204;-122.940;2023-09-18T08:10:13;3.53;;;2.30;;
80707;SDS011;70222;49.204;-122.940;2023-09-18T08:12:39;4.72;;;2.30;;
80707;SDS011;70222;49.204;-122.940;2023-09-18T08:15:05;5.00;;;2.22;;
80707;SDS011;70222;49.204;-122.940;2023-09-18T08:17:32;3.55;;;2.30;;
80707;SDS011;70222;49.204;-122.940;2023-09-18T08:19:58;4.70;;;2.55;;
80707;SDS011;70222;49.204;-122.940;2023-09-18T08:22:24;4.18;;;2.40;;
80707;SDS011;70222;49.204;-122.940;2023-09-18T08:24:50;4.40;;;2.90;;
80707;SDS011;70222;49.204;-122.940;2023-09-18T08:27:18;3.03;;;2.22;;
80707;SDS011;70222;49.204;-122.940;2023-09-18T08:29:44;5.40;;;2.63;;
80707;SDS011;70222;49.204;-122.940;2023-09-18T08:34:37;4.15;;;2.60;;
80707;SDS011;70222;49.204;-122.940;2023-09-18T08:37:03;3.47;;;1.95;;
80707;SDS011;70222;49.204;-122.940;2023-09-18T08:39:29;3.60;;;2.03;;
80707;SDS011;70222;49.204;-122.940;2023-09-18T08:42:04;3.65;;;2.42;;
80707;SDS011;70222;49.204;-122.940;2023-09-18T08:44:32;2.97;;;2.15;;
80707;SDS011;70222;49.204;-122.940;2023-09-18T08:47:00;4.22;;;2.67;;
80707;SDS011;70222;49.204;-122.940;2023-09-18T08:51:54;3.45;;;2.33;;
80707;SDS011;70222;49.204;-122.940;2023-09-18T08:54:21;4.45;;;2.22;;
80707;SDS011;70222;49.204;-122.940;2023-09-18T08:56:49;3.00;;;1.90;;
80707;SDS011;70222;49.204;-122.940;2023-09-18T08:59:19;3.10;;;2.10;;
80707;SDS011;70222;49.204;-122.940;2023-09-18T09:01:47;3.58;;;2.38;;
80707;SDS011;70222;49.204;-122.940;2023-09-18T09:04:13;3.78;;;2.75;;
80707;SDS011;70222;49.204;-122.940;2023-09-18T09:06:40;4.82;;;2.42;;
80707;SDS011;70222;49.204;-122.940;2023-09-18T09:09:06;4.07;;;2.03;;
80707;SDS011;70222;49.204;-122.940;2023-09-18T09:11:33;4.00;;;2.50;;
80707;SDS011;70222;49.204;-122.940;2023-09-18T09:14:13;3.33;;;2.47;;
80707;SDS011;70222;49.204;-122.940;2023-09-18T09:16:53;5.18;;;2.13;;
80707;SDS011;70222;49.204;-122.940;2023-09-18T09:25:25;3.65;;;2.30;;
80707;SDS011;70222;49.204;-122.940;2023-09-18T09:27:54;4.80;;;2.38;;
80707;SDS011;70222;49.204;-122.940;2023-09-18T09:30:21;3.92;;;2.17;;
80707;SDS011;70222;49.204;-122.940;2023-09-18T09:32:49;3.15;;;2.30;;
80707;SDS011;70222;49.204;-122.940;2023-09-18T09:35:22;3.50;;;2.05;;
80707;SDS011;70222;49.204;-122.940;2023-09-18T09:37:53;5.35;;;2.25;;
80707;SDS011;70222;49.204;-122.940;2023-09-18T09:40:24;4.10;;;2.08;;
80707;SDS011;70222;49.204;-122.940;2023-09-18T09:42:51;4.30;;;2.30;;
80707;SDS011;70222;49.204;-122.940;2023-09-18T09:45:19;3.72;;;2.25;;
80707;SDS011;70222;49.204;-122.940;2023-09-18T09:47:45;6.22;;;2.28;;
80707;SDS011;70222;49.204;-122.940;2023-09-18T09:50:13;3.42;;;2.17;;
80707;SDS011;70222;49.204;-122.940;2023-09-18T09:52:42;3.75;;;2.17;;
80707;SDS011;70222;49.204;-122.940;2023-09-18T09:55:19;4.25;;;2.22;;
80707;SDS011;70222;49.204;-122.940;2023-09-18T09:57:47;4.65;;;2.53;;
80707;SDS011;70222;49.204;-122.940;2023-09-18T10:00:14;5.70;;;2.75;;
80707;SDS011;70222;49.204;-122.940;2023-09-18T10:03:01;5.68;;;3.28;;
80707;SDS011;70222;49.204;-122.940;2023-09-18T10:05:30;4.40;;;2.50;;
80707;SDS011;70222;49.204;-122.940;2023-09-18T10:08:02;5.47;;;2.40;;
80707;SDS011;70222;49.204;-122.940;2023-09-18T10:10:39;4.63;;;3.03;;
80707;SDS011;70222;49.204;-122.940;2023-09-18T10:13:17;5.25;;;2.55;;
80707;SDS011;70222;49.204;-122.940;2023-09-18T10:15:50;4.18;;;2.70;;
80707;SDS011;70222;49.204;-122.940;2023-09-18T10:18:17;8.70;;;3.90;;
80707;SDS011;70222;49.204;-122.940;2023-09-18T10:20:48;6.97;;;3.58;;
80707;SDS011;70222;49.204;-122.940;2023-09-18T10:24:03;9.48;;;4.68;;
80707;SDS011;70222;49.204;-122.940;2023-09-18T10:26:32;9.25;;;3.35;;
80707;SDS011;70222;49.204;-122.940;2023-09-18T10:29:03;5.35;;;2.95;;
80707;SDS011;70222;49.204;-122.940;2023-09-18T10:31:31;8.23;;;2.50;;
80707;SDS011;70222;49.204;-122.940;2023-09-18T10:33:59;4.88;;;3.03;;
80707;SDS011;70222;49.204;-122.940;2023-09-18T10:36:28;10.52;;;3.47;;
80707;SDS011;70222;49.204;-122.940;2023-09-18T10:38:55;4.88;;;2.63;;
80707;SDS011;70222;49.204;-122.940;2023-09-18T10:41:22;6.60;;;2.78;;
80707;SDS011;70222;49.204;-122.940;2023-09-18T10:43:51;10.43;;;2.80;;
80707;SDS011;70222;49.204;-122.940;2023-09-18T10:46:19;10.02;;;3.72;;
80707;SDS011;70222;49.204;-122.940;2023-09-18T10:48:46;11.40;;;2.92;;
80707;SDS011;70222;49.204;-122.940;2023-09-18T10:51:12;10.55;;;2.35;;
80707;SDS011;70222;49.204;-122.940;2023-09-18T10:53:39;12.85;;;2.40;;
80707;SDS011;70222;49.204;-122.940;2023-09-18T10:56:06;7.93;;;3.13;;
80707;SDS011;70222;49.204;-122.940;2023-09-18T10:58:32;6.45;;;2.42;;
80707;SDS011;70222;49.204;-122.940;2023-09-18T11:01:07;9.15;;;3.15;;
80707;SDS011;70222;49.204;-122.940;2023-09-18T11:03:33;6.05;;;2.67;;
80707;SDS011;70222;49.204;-122.940;2023-09-18T11:06:06;5.50;;;2.30;;
80707;SDS011;70222;49.204;-122.940;2023-09-18T11:08:48;7.78;;;2.45;;
80707;SDS011;70222;49.204;-122.940;2023-09-18T11:11:17;4.57;;;1.95;;
80707;SDS011;70222;49.204;-122.940;2023-09-18T11:13:46;6.93;;;2.75;;
80707;SDS011;70222;49.204;-122.940;2023-09-18T11:18:42;8.27;;;2.45;;
80707;SDS011;70222;49.204;-122.940;2023-09-18T11:21:09;4.78;;;1.95;;
80707;SDS011;70222;49.204;-122.940;2023-09-18T11:23:37;4.53;;;2.13;;
80707;SDS011;70222;49.204;-122.940;2023-09-18T11:26:08;3.78;;;2.10;;
80707;SDS011;70222;49.204;-122.940;2023-09-18T11:28:35;3.10;;;1.40;;
80707;SDS011;70222;49.204;-122.940;2023-09-18T11:31:03;2.85;;;1.58;;
80707;SDS011;70222;49.204;-122.940;2023-09-18T11:33:36;4.47;;;1.88;;
80707;SDS011;70222;49.204;-122.940;2023-09-18T11:36:45;6.57;;;1.98;;
80707;SDS011;70222;49.204;-122.940;2023-09-18T11:38:56;5.90;;;2.05;;
80707;SDS011;70222;49.204;-122.940;2023-09-18T11:41:27;6.88;;;2.10;;
80707;SDS011;70222;49.204;-122.940;2023-09-18T11:46:39;4.10;;;1.52;;
80707;SDS011;70222;49.204;-122.940;2023-09-18T11:49:08;4.30;;;1.75;;
80707;SDS011;70222;49.204;-122.940;2023-09-18T11:51:37;2.40;;;1.33;;
80707;SDS011;70222;49.204;-122.940;2023-09-18T11:56:31;4.22;;;1.52;;
80707;SDS011;70222;49.204;-122.940;2023-09-18T11:58:58;3.00;;;1.55;;
80707;SDS011;70222;49.204;-122.940;2023-09-18T12:01:30;5.85;;;1.48;;
80707;SDS011;70222;49.204;-122.940;2023-09-18T12:04:01;6.07;;;2.00;;
80707;SDS011;70222;49.204;-122.940;2023-09-18T12:06:33;4.15;;;1.75;;
80707;SDS011;70222;49.204;-122.940;2023-09-18T12:08:59;2.83;;;1.90;;
80707;SDS011;70222;49.204;-122.940;2023-09-18T12:11:26;7.05;;;1.98;;
80707;SDS011;70222;49.204;-122.940;2023-09-18T12:13:53;2.53;;;1.45;;
80707;SDS011;70222;49.204;-122.940;2023-09-18T12:16:19;7.22;;;1.63;;
80707;SDS011;70222;49.204;-122.940;2023-09-18T12:18:48;6.38;;;2.05;;
80707;SDS011;70222;49.204;-122.940;2023-09-18T12:21:15;7.25;;;1.52;;
80707;SDS011;70222;49.204;-122.940;2023-09-18T12:23:45;5.35;;;1.90;;
80707;SDS011;70222;49.204;-122.940;2023-09-18T12:26:12;6.30;;;1.40;;
80707;SDS011;70222;49.204;-122.940;2023-09-18T12:28:42;3.35;;;1.30;;
80707;SDS011;70222;49.204;-122.940;2023-09-18T12:31:12;6.15;;;1.20;;
80707;SDS011;70222;49.204;-122.940;2023-09-18T12:33:40;3.33;;;0.95;;
80707;SDS011;70222;49.204;-122.940;2023-09-18T12:36:07;5.53;;;1.48;;
80707;SDS011;70222;49.204;-122.940;2023-09-18T12:38:34;2.53;;;1.23;;
80707;SDS011;70222;49.204;-122.940;2023-09-18T12:41:02;4.43;;;1.23;;
80707;SDS011;70222;49.204;-122.940;2023-09-18T12:43:36;4.88;;;1.60;;
80707;SDS011;70222;49.204;-122.940;2023-09-18T12:46:08;4.30;;;1.40;;
80707;SDS011;70222;49.204;-122.940;2023-09-18T12:48:38;5.30;;;1.35;;
80707;SDS011;70222;49.204;-122.940;2023-09-18T12:51:10;3.50;;;1.30;;
80707;SDS011;70222;49.204;-122.940;2023-09-18T12:53:37;2.15;;;1.13;;
80707;SDS011;70222;49.204;-122.940;2023-09-18T12:56:06;1.90;;;0.95;;
80707;SDS011;70222;49.204;-122.940;2023-09-18T12:58:36;4.82;;;1.30;;
80707;SDS011;70222;49.204;-122.940;2023-09-18T13:01:06;3.72;;;1.25;;
80707;SDS011;70222;49.204;-122.940;2023-09-18T13:03:34;2.28;;;1.38;;
80707;SDS011;70222;49.204;-122.940;2023-09-18T13:06:09;1.77;;;1.23;;
80707;SDS011;70222;49.204;-122.940;2023-09-18T13:08:37;6.30;;;1.20;;
80707;SDS011;70222;49.204;-122.940;2023-09-18T13:11:03;2.55;;;1.33;;
80707;SDS011;70222;49.204;-122.940;2023-09-18T13:13:30;2.33;;;1.05;;
80707;SDS011;70222;49.204;-122.940;2023-09-18T13:15:59;4.35;;;2.33;;
80707;SDS011;70222;49.204;-122.940;2023-09-18T13:18:26;3.50;;;1.63;;
80707;SDS011;70222;49.204;-122.940;2023-09-18T13:20:53;1.33;;;0.88;;
80707;SDS011;70222;49.204;-122.940;2023-09-18T13:23:20;4.03;;;1.45;;
80707;SDS011;70222;49.204;-122.940;2023-09-18T13:25:46;3.25;;;1.33;;
80707;SDS011;70222;49.204;-122.940;2023-09-18T13:28:13;5.13;;;1.70;;
80707;SDS011;70222;49.204;-122.940;2023-09-18T13:35:36;5.82;;;1.92;;
80707;SDS011;70222;49.204;-122.940;2023-09-18T13:38:06;6.18;;;1.90;;
80707;SDS011;70222;49.204;-122.940;2023-09-18T13:40:39;6.93;;;1.95;;
80707;SDS011;70222;49.204;-122.940;2023-09-18T13:43:07;7.05;;;2.40;;
80707;SDS011;70222;49.204;-122.940;2023-09-18T13:45:34;3.67;;;1.38;;
80707;SDS011;70222;49.204;-122.940;2023-09-18T13:48:07;7.25;;;1.85;;
80707;SDS011;70222;49.204;-122.940;2023-09-18T13:50:34;5.82;;;1.63;;
80707;SDS011;70222;49.204;-122.940;2023-09-18T13:53:01;4.18;;;1.63;;
80707;SDS011;70222;49.204;-122.940;2023-09-18T13:55:29;5.72;;;1.75;;
80707;SDS011;70222;49.204;-122.940;2023-09-18T13:57:56;8.00;;;1.98;;
80707;SDS011;70222;49.204;-122.940;2023-09-18T14:00:22;3.25;;;1.27;;
80707;SDS011;70222;49.204;-122.940;2023-09-18T14:02:48;4.35;;;1.38;;
80707;SDS011;70222;49.204;-122.940;2023-09-18T14:05:14;8.40;;;1.65;;
80707;SDS011;70222;49.204;-122.940;2023-09-18T14:07:40;9.52;;;1.98;;
80707;SDS011;70222;49.204;-122.940;2023-09-18T14:10:07;5.10;;;1.15;;
80707;SDS011;70222;49.204;-122.940;2023-09-18T14:12:35;5.53;;;2.05;;
80707;SDS011;70222;49.204;-122.940;2023-09-18T14:15:08;4.80;;;1.55;;
80707;SDS011;70222;49.204;-122.940;2023-09-18T14:17:35;4.53;;;1.42;;
80707;SDS011;70222;49.204;-122.940;2023-09-18T14:20:02;4.55;;;1.40;;
80707;SDS011;70222;49.204;-122.940;2023-09-18T14:22:35;5.65;;;1.58;;
80707;SDS011;70222;49.204;-122.940;2023-09-18T14:25:02;8.65;;;1.70;;
80707;SDS011;70222;49.204;-122.940;2023-09-18T14:27:31;2.78;;;1.25;;
80707;SDS011;70222;49.204;-122.940;2023-09-18T14:32:23;4.75;;;1.77;;
80707;SDS011;70222;49.204;-122.940;2023-09-18T14:34:49;8.15;;;2.95;;
80707;SDS011;70222;49.204;-122.940;2023-09-18T14:37:15;6.88;;;1.58;;
80707;SDS011;70222;49.204;-122.940;2023-09-18T14:39:42;4.47;;;1.40;;
80707;SDS011;70222;49.204;-122.940;2023-09-18T14:42:08;4.70;;;1.33;;
80707;SDS011;70222;49.204;-122.940;2023-09-18T14:44:36;3.90;;;1.38;;
80707;SDS011;70222;49.204;-122.940;2023-09-18T14:47:05;3.38;;;1.58;;
80707;SDS011;70222;49.204;-122.940;2023-09-18T14:49:31;5.28;;;2.55;;
80707;SDS011;70222;49.204;-122.940;2023-09-18T14:51:58;3.58;;;1.50;;